Oostrozebeke, Belgium
Current Conditions -  °F | °C
As of 6:00 PM on Saturday 25 Oct 2014 (Local Time) from LFQQ Reporting Station
Broken Clouds Broken Clouds  
Wind Chill: 57°   Ceiling: 4300
Heat Index: 57°   Visibility: 6mi
Dew Point: 48°   Wind: 5mph
Humidity: 72%   Direction: 310°NW
Pressure: 30.12"   Gusts: NA
Location:  50.92°N, 3.34°E
Report Text: LFQQ 251600Z 31004KT 9999 BKN043 14/09 Q1020 NOSIG
Loading
Personal Weather Stations






























Interactive Weather Map
Tropical Storm Tracking
New forecast layout! Learn more

10-Day Weather Forecast

Advertisements
Track Severe Weather on mobile